sensor_id;sensor_type;location;lat;lon;timestamp;P1;durP1;ratioP1;P2;durP2;ratioP2
32200;SDS011;18701;45.588;5.288;2022-07-25T00:00:58;4.70;;;3.30;;
32200;SDS011;18701;45.588;5.288;2022-07-25T00:03:24;4.18;;;3.15;;
32200;SDS011;18701;45.588;5.288;2022-07-25T00:05:49;6.80;;;2.90;;
32200;SDS011;18701;45.588;5.288;2022-07-25T00:08:15;6.85;;;3.30;;
32200;SDS011;18701;45.588;5.288;2022-07-25T00:10:42;6.07;;;3.42;;
32200;SDS011;18701;45.588;5.288;2022-07-25T00:13:08;4.82;;;2.78;;
32200;SDS011;18701;45.588;5.288;2022-07-25T00:15:34;5.72;;;3.38;;
32200;SDS011;18701;45.588;5.288;2022-07-25T00:17:59;3.58;;;3.03;;
32200;SDS011;18701;45.588;5.288;2022-07-25T00:20:25;3.88;;;3.08;;
32200;SDS011;18701;45.588;5.288;2022-07-25T00:22:52;3.47;;;2.92;;
32200;SDS011;18701;45.588;5.288;2022-07-25T00:25:17;8.88;;;2.95;;
32200;SDS011;18701;45.588;5.288;2022-07-25T00:27:43;7.25;;;3.17;;
32200;SDS011;18701;45.588;5.288;2022-07-25T00:30:09;6.68;;;2.97;;
32200;SDS011;18701;45.588;5.288;2022-07-25T00:32:34;6.82;;;3.25;;
32200;SDS011;18701;45.588;5.288;2022-07-25T00:35:00;5.07;;;3.35;;
32200;SDS011;18701;45.588;5.288;2022-07-25T00:37:26;7.32;;;3.47;;
32200;SDS011;18701;45.588;5.288;2022-07-25T00:39:52;4.43;;;2.97;;
32200;SDS011;18701;45.588;5.288;2022-07-25T00:42:17;5.53;;;3.42;;
32200;SDS011;18701;45.588;5.288;2022-07-25T00:44:43;7.90;;;3.55;;
32200;SDS011;18701;45.588;5.288;2022-07-25T00:47:08;4.07;;;3.13;;
32200;SDS011;18701;45.588;5.288;2022-07-25T00:49:34;6.68;;;3.50;;
32200;SDS011;18701;45.588;5.288;2022-07-25T00:52:00;6.47;;;4.07;;
32200;SDS011;18701;45.588;5.288;2022-07-25T00:54:25;3.33;;;3.00;;
32200;SDS011;18701;45.588;5.288;2022-07-25T00:56:51;7.65;;;4.03;;
32200;SDS011;18701;45.588;5.288;2022-07-25T00:59:17;8.35;;;3.88;;
32200;SDS011;18701;45.588;5.288;2022-07-25T01:01:42;3.65;;;3.08;;
32200;SDS011;18701;45.588;5.288;2022-07-25T01:04:12;7.07;;;3.60;;
32200;SDS011;18701;45.588;5.288;2022-07-25T01:06:38;6.15;;;3.92;;
32200;SDS011;18701;45.588;5.288;2022-07-25T01:09:04;7.28;;;4.00;;
32200;SDS011;18701;45.588;5.288;2022-07-25T01:11:29;3.58;;;3.17;;
32200;SDS011;18701;45.588;5.288;2022-07-25T01:13:55;5.68;;;3.20;;
32200;SDS011;18701;45.588;5.288;2022-07-25T01:16:21;5.78;;;3.60;;
32200;SDS011;18701;45.588;5.288;2022-07-25T01:18:46;5.20;;;3.70;;
32200;SDS011;18701;45.588;5.288;2022-07-25T01:21:12;8.27;;;4.13;;
32200;SDS011;18701;45.588;5.288;2022-07-25T01:23:38;6.05;;;3.40;;
32200;SDS011;18701;45.588;5.288;2022-07-25T01:26:04;8.85;;;3.45;;
32200;SDS011;18701;45.588;5.288;2022-07-25T01:28:30;6.70;;;3.38;;
32200;SDS011;18701;45.588;5.288;2022-07-25T01:30:56;6.97;;;3.78;;
32200;SDS011;18701;45.588;5.288;2022-07-25T01:33:22;6.30;;;3.72;;
32200;SDS011;18701;45.588;5.288;2022-07-25T01:35:48;7.70;;;3.58;;
32200;SDS011;18701;45.588;5.288;2022-07-25T01:38:16;9.07;;;3.72;;
32200;SDS011;18701;45.588;5.288;2022-07-25T01:40:43;5.25;;;3.03;;
32200;SDS011;18701;45.588;5.288;2022-07-25T01:43:09;4.97;;;3.60;;
32200;SDS011;18701;45.588;5.288;2022-07-25T01:45:35;4.90;;;3.42;;
32200;SDS011;18701;45.588;5.288;2022-07-25T01:48:01;5.85;;;3.08;;
32200;SDS011;18701;45.588;5.288;2022-07-25T01:50:27;6.07;;;3.47;;
32200;SDS011;18701;45.588;5.288;2022-07-25T01:52:53;8.43;;;3.67;;
32200;SDS011;18701;45.588;5.288;2022-07-25T01:55:21;5.78;;;3.47;;
32200;SDS011;18701;45.588;5.288;2022-07-25T01:57:46;11.95;;;3.90;;
32200;SDS011;18701;45.588;5.288;2022-07-25T02:00:13;4.30;;;3.15;;
32200;SDS011;18701;45.588;5.288;2022-07-25T02:02:40;6.72;;;3.17;;
32200;SDS011;18701;45.588;5.288;2022-07-25T02:05:08;3.70;;;3.13;;
32200;SDS011;18701;45.588;5.288;2022-07-25T02:07:35;7.45;;;3.65;;
32200;SDS011;18701;45.588;5.288;2022-07-25T02:10:01;4.65;;;2.75;;
32200;SDS011;18701;45.588;5.288;2022-07-25T02:12:28;8.95;;;3.20;;
32200;SDS011;18701;45.588;5.288;2022-07-25T02:14:53;6.40;;;3.15;;
32200;SDS011;18701;45.588;5.288;2022-07-25T02:17:19;4.80;;;3.35;;
32200;SDS011;18701;45.588;5.288;2022-07-25T02:19:45;3.95;;;3.45;;
32200;SDS011;18701;45.588;5.288;2022-07-25T02:22:10;6.80;;;3.15;;
32200;SDS011;18701;45.588;5.288;2022-07-25T02:24:36;4.25;;;3.08;;
32200;SDS011;18701;45.588;5.288;2022-07-25T02:27:02;7.50;;;2.92;;
32200;SDS011;18701;45.588;5.288;2022-07-25T02:29:28;7.03;;;3.00;;
32200;SDS011;18701;45.588;5.288;2022-07-25T02:31:54;5.40;;;2.90;;
32200;SDS011;18701;45.588;5.288;2022-07-25T02:34:20;4.13;;;2.70;;
32200;SDS011;18701;45.588;5.288;2022-07-25T02:36:45;4.78;;;3.10;;
32200;SDS011;18701;45.588;5.288;2022-07-25T02:39:11;7.13;;;3.78;;
32200;SDS011;18701;45.588;5.288;2022-07-25T02:41:37;6.63;;;2.83;;
32200;SDS011;18701;45.588;5.288;2022-07-25T02:44:03;12.68;;;2.88;;
32200;SDS011;18701;45.588;5.288;2022-07-25T02:46:30;5.00;;;2.92;;
32200;SDS011;18701;45.588;5.288;2022-07-25T02:48:56;4.65;;;2.28;;
32200;SDS011;18701;45.588;5.288;2022-07-25T02:51:23;5.65;;;2.58;;
32200;SDS011;18701;45.588;5.288;2022-07-25T02:53:51;4.75;;;2.70;;
32200;SDS011;18701;45.588;5.288;2022-07-25T02:56:17;5.63;;;3.30;;
32200;SDS011;18701;45.588;5.288;2022-07-25T02:58:42;4.65;;;2.53;;
32200;SDS011;18701;45.588;5.288;2022-07-25T03:01:08;11.10;;;3.08;;
32200;SDS011;18701;45.588;5.288;2022-07-25T03:03:34;3.08;;;2.60;;
32200;SDS011;18701;45.588;5.288;2022-07-25T03:05:59;3.88;;;2.92;;
32200;SDS011;18701;45.588;5.288;2022-07-25T03:08:25;3.72;;;2.70;;
32200;SDS011;18701;45.588;5.288;2022-07-25T03:10:51;5.95;;;2.53;;
32200;SDS011;18701;45.588;5.288;2022-07-25T03:13:17;5.18;;;2.50;;
32200;SDS011;18701;45.588;5.288;2022-07-25T03:15:43;4.50;;;3.08;;
32200;SDS011;18701;45.588;5.288;2022-07-25T03:18:08;3.42;;;3.05;;
32200;SDS011;18701;45.588;5.288;2022-07-25T03:20:34;5.68;;;2.53;;
32200;SDS011;18701;45.588;5.288;2022-07-25T03:23:00;7.57;;;2.75;;
32200;SDS011;18701;45.588;5.288;2022-07-25T03:25:25;10.13;;;3.03;;
32200;SDS011;18701;45.588;5.288;2022-07-25T03:27:51;3.70;;;2.85;;
32200;SDS011;18701;45.588;5.288;2022-07-25T03:30:17;6.55;;;2.85;;
32200;SDS011;18701;45.588;5.288;2022-07-25T03:32:42;7.15;;;2.92;;
32200;SDS011;18701;45.588;5.288;2022-07-25T03:35:08;6.88;;;3.28;;
32200;SDS011;18701;45.588;5.288;2022-07-25T03:37:34;4.43;;;2.90;;
32200;SDS011;18701;45.588;5.288;2022-07-25T03:39:59;8.23;;;2.67;;
32200;SDS011;18701;45.588;5.288;2022-07-25T03:42:25;7.75;;;3.08;;
32200;SDS011;18701;45.588;5.288;2022-07-25T03:44:51;5.65;;;2.50;;
32200;SDS011;18701;45.588;5.288;2022-07-25T03:47:16;7.65;;;3.30;;
32200;SDS011;18701;45.588;5.288;2022-07-25T03:49:42;6.18;;;3.13;;
32200;SDS011;18701;45.588;5.288;2022-07-25T03:52:07;4.30;;;3.20;;
32200;SDS011;18701;45.588;5.288;2022-07-25T03:54:33;4.53;;;2.92;;
32200;SDS011;18701;45.588;5.288;2022-07-25T03:56:59;6.78;;;2.85;;
32200;SDS011;18701;45.588;5.288;2022-07-25T03:59:24;3.60;;;2.78;;
32200;SDS011;18701;45.588;5.288;2022-07-25T04:01:50;5.85;;;2.80;;
32200;SDS011;18701;45.588;5.288;2022-07-25T04:04:16;4.40;;;3.00;;
32200;SDS011;18701;45.588;5.288;2022-07-25T04:06:43;7.68;;;3.30;;
32200;SDS011;18701;45.588;5.288;2022-07-25T04:09:10;6.90;;;3.78;;
32200;SDS011;18701;45.588;5.288;2022-07-25T04:11:36;6.93;;;3.63;;
32200;SDS011;18701;45.588;5.288;2022-07-25T04:14:02;5.93;;;3.10;;
32200;SDS011;18701;45.588;5.288;2022-07-25T04:16:28;5.20;;;3.35;;
32200;SDS011;18701;45.588;5.288;2022-07-25T04:18:54;5.50;;;2.75;;
32200;SDS011;18701;45.588;5.288;2022-07-25T04:21:20;7.10;;;3.03;;
32200;SDS011;18701;45.588;5.288;2022-07-25T04:23:46;8.52;;;3.08;;
32200;SDS011;18701;45.588;5.288;2022-07-25T04:26:12;7.75;;;2.90;;
32200;SDS011;18701;45.588;5.288;2022-07-25T04:28:38;4.88;;;3.22;;
32200;SDS011;18701;45.588;5.288;2022-07-25T04:31:03;5.65;;;3.53;;
32200;SDS011;18701;45.588;5.288;2022-07-25T04:33:29;6.57;;;3.00;;
32200;SDS011;18701;45.588;5.288;2022-07-25T04:35:54;7.75;;;3.47;;
32200;SDS011;18701;45.588;5.288;2022-07-25T04:38:20;5.10;;;3.55;;
32200;SDS011;18701;45.588;5.288;2022-07-25T04:40:46;9.13;;;3.25;;
32200;SDS011;18701;45.588;5.288;2022-07-25T04:43:12;5.78;;;2.92;;
32200;SDS011;18701;45.588;5.288;2022-07-25T04:45:38;8.10;;;3.33;;
32200;SDS011;18701;45.588;5.288;2022-07-25T04:48:03;6.15;;;3.45;;
32200;SDS011;18701;45.588;5.288;2022-07-25T04:50:29;6.22;;;3.38;;
32200;SDS011;18701;45.588;5.288;2022-07-25T04:52:54;5.10;;;3.05;;
32200;SDS011;18701;45.588;5.288;2022-07-25T04:55:20;8.43;;;3.20;;
32200;SDS011;18701;45.588;5.288;2022-07-25T04:57:46;5.40;;;3.60;;
32200;SDS011;18701;45.588;5.288;2022-07-25T05:00:12;4.47;;;3.22;;
32200;SDS011;18701;45.588;5.288;2022-07-25T05:02:39;7.30;;;3.25;;
32200;SDS011;18701;45.588;5.288;2022-07-25T05:05:05;5.20;;;3.42;;
32200;SDS011;18701;45.588;5.288;2022-07-25T05:07:32;4.28;;;3.47;;
32200;SDS011;18701;45.588;5.288;2022-07-25T05:09:58;8.52;;;3.42;;
32200;SDS011;18701;45.588;5.288;2022-07-25T05:12:24;5.18;;;3.40;;
32200;SDS011;18701;45.588;5.288;2022-07-25T05:14:49;8.52;;;3.15;;
32200;SDS011;18701;45.588;5.288;2022-07-25T05:17:15;4.57;;;2.92;;
32200;SDS011;18701;45.588;5.288;2022-07-25T05:19:41;6.50;;;3.22;;
32200;SDS011;18701;45.588;5.288;2022-07-25T05:22:06;5.45;;;3.05;;
32200;SDS011;18701;45.588;5.288;2022-07-25T05:24:32;8.18;;;3.53;;
32200;SDS011;18701;45.588;5.288;2022-07-25T05:26:59;8.10;;;3.75;;
32200;SDS011;18701;45.588;5.288;2022-07-25T05:29:24;7.60;;;3.38;;
32200;SDS011;18701;45.588;5.288;2022-07-25T05:31:51;8.73;;;4.10;;
32200;SDS011;18701;45.588;5.288;2022-07-25T05:34:16;9.15;;;3.85;;
32200;SDS011;18701;45.588;5.288;2022-07-25T05:36:42;7.38;;;3.60;;
32200;SDS011;18701;45.588;5.288;2022-07-25T05:39:08;4.22;;;3.35;;
32200;SDS011;18701;45.588;5.288;2022-07-25T05:41:33;5.85;;;3.38;;
32200;SDS011;18701;45.588;5.288;2022-07-25T05:43:59;5.47;;;3.17;;
32200;SDS011;18701;45.588;5.288;2022-07-25T05:46:25;5.60;;;3.20;;
32200;SDS011;18701;45.588;5.288;2022-07-25T05:48:50;8.68;;;3.40;;
32200;SDS011;18701;45.588;5.288;2022-07-25T05:51:16;4.72;;;3.38;;
32200;SDS011;18701;45.588;5.288;2022-07-25T05:53:42;4.95;;;3.40;;
32200;SDS011;18701;45.588;5.288;2022-07-25T05:56:08;6.20;;;3.30;;
32200;SDS011;18701;45.588;5.288;2022-07-25T05:58:33;3.83;;;3.38;;
32200;SDS011;18701;45.588;5.288;2022-07-25T06:01:01;5.47;;;3.70;;
32200;SDS011;18701;45.588;5.288;2022-07-25T06:03:26;5.65;;;3.40;;
32200;SDS011;18701;45.588;5.288;2022-07-25T06:05:53;5.10;;;3.65;;
32200;SDS011;18701;45.588;5.288;2022-07-25T06:08:19;7.63;;;3.58;;
32200;SDS011;18701;45.588;5.288;2022-07-25T06:10:45;8.90;;;3.35;;
32200;SDS011;18701;45.588;5.288;2022-07-25T06:13:10;5.35;;;3.80;;
32200;SDS011;18701;45.588;5.288;2022-07-25T06:15:36;8.18;;;3.63;;
32200;SDS011;18701;45.588;5.288;2022-07-25T06:18:02;9.10;;;3.88;;
32200;SDS011;18701;45.588;5.288;2022-07-25T06:20:27;9.35;;;3.70;;
32200;SDS011;18701;45.588;5.288;2022-07-25T06:22:53;5.65;;;3.30;;
32200;SDS011;18701;45.588;5.288;2022-07-25T06:25:18;8.50;;;3.50;;
32200;SDS011;18701;45.588;5.288;2022-07-25T06:27:47;6.88;;;4.00;;
32200;SDS011;18701;45.588;5.288;2022-07-25T06:30:12;5.70;;;3.90;;
32200;SDS011;18701;45.588;5.288;2022-07-25T06:32:38;6.45;;;3.42;;
32200;SDS011;18701;45.588;5.288;2022-07-25T06:35:04;5.28;;;3.50;;
32200;SDS011;18701;45.588;5.288;2022-07-25T06:37:30;6.55;;;3.50;;
32200;SDS011;18701;45.588;5.288;2022-07-25T06:39:55;6.55;;;3.88;;
32200;SDS011;18701;45.588;5.288;2022-07-25T06:42:21;4.22;;;3.80;;
32200;SDS011;18701;45.588;5.288;2022-07-25T06:44:46;8.30;;;3.60;;
32200;SDS011;18701;45.588;5.288;2022-07-25T06:47:12;5.78;;;3.58;;
32200;SDS011;18701;45.588;5.288;2022-07-25T06:49:38;5.45;;;3.80;;
32200;SDS011;18701;45.588;5.288;2022-07-25T06:52:05;5.22;;;3.90;;
32200;SDS011;18701;45.588;5.288;2022-07-25T06:54:31;6.60;;;3.65;;
32200;SDS011;18701;45.588;5.288;2022-07-25T06:56:57;6.63;;;3.38;;
32200;SDS011;18701;45.588;5.288;2022-07-25T06:59:23;6.85;;;3.80;;
32200;SDS011;18701;45.588;5.288;2022-07-25T07:01:48;8.15;;;4.07;;
32200;SDS011;18701;45.588;5.288;2022-07-25T07:04:14;36.05;;;5.25;;
32200;SDS011;18701;45.588;5.288;2022-07-25T07:06:40;9.48;;;3.40;;
32200;SDS011;18701;45.588;5.288;2022-07-25T07:09:06;5.07;;;3.50;;
32200;SDS011;18701;45.588;5.288;2022-07-25T07:11:32;7.47;;;3.55;;
32200;SDS011;18701;45.588;5.288;2022-07-25T07:13:58;6.43;;;3.35;;
32200;SDS011;18701;45.588;5.288;2022-07-25T07:16:26;5.22;;;3.22;;
32200;SDS011;18701;45.588;5.288;2022-07-25T07:18:53;8.77;;;4.35;;
32200;SDS011;18701;45.588;5.288;2022-07-25T07:21:21;4.68;;;3.45;;
32200;SDS011;18701;45.588;5.288;2022-07-25T07:23:48;8.50;;;4.35;;
32200;SDS011;18701;45.588;5.288;2022-07-25T07:26:17;11.13;;;4.30;;
32200;SDS011;18701;45.588;5.288;2022-07-25T07:28:43;10.45;;;3.92;;
32200;SDS011;18701;45.588;5.288;2022-07-25T07:31:08;12.25;;;3.50;;
32200;SDS011;18701;45.588;5.288;2022-07-25T07:33:34;7.57;;;3.40;;
32200;SDS011;18701;45.588;5.288;2022-07-25T07:36:01;5.13;;;3.50;;
32200;SDS011;18701;45.588;5.288;2022-07-25T07:38:27;14.52;;;3.90;;
32200;SDS011;18701;45.588;5.288;2022-07-25T07:40:52;6.53;;;3.40;;
32200;SDS011;18701;45.588;5.288;2022-07-25T07:43:21;12.68;;;3.67;;
32200;SDS011;18701;45.588;5.288;2022-07-25T07:45:46;11.25;;;3.83;;
32200;SDS011;18701;45.588;5.288;2022-07-25T07:48:12;7.00;;;4.32;;
32200;SDS011;18701;45.588;5.288;2022-07-25T07:50:38;5.85;;;3.42;;
32200;SDS011;18701;45.588;5.288;2022-07-25T07:53:04;7.50;;;3.88;;
32200;SDS011;18701;45.588;5.288;2022-07-25T07:55:30;9.85;;;4.05;;
32200;SDS011;18701;45.588;5.288;2022-07-25T07:58:08;5.82;;;4.68;;
32200;SDS011;18701;45.588;5.288;2022-07-25T08:00:35;6.50;;;4.10;;
32200;SDS011;18701;45.588;5.288;2022-07-25T08:03:03;7.60;;;3.90;;
32200;SDS011;18701;45.588;5.288;2022-07-25T08:05:34;6.97;;;3.92;;
32200;SDS011;18701;45.588;5.288;2022-07-25T08:08:02;7.80;;;3.85;;
32200;SDS011;18701;45.588;5.288;2022-07-25T08:10:30;5.57;;;4.63;;
32200;SDS011;18701;45.588;5.288;2022-07-25T08:12:58;10.40;;;6.45;;
32200;SDS011;18701;45.588;5.288;2022-07-25T08:15:24;6.50;;;3.50;;
32200;SDS011;18701;45.588;5.288;2022-07-25T08:17:50;6.03;;;3.42;;
32200;SDS011;18701;45.588;5.288;2022-07-25T08:20:17;6.25;;;3.58;;
32200;SDS011;18701;45.588;5.288;2022-07-25T08:22:45;13.43;;;3.58;;
32200;SDS011;18701;45.588;5.288;2022-07-25T08:25:13;8.18;;;3.15;;
32200;SDS011;18701;45.588;5.288;2022-07-25T08:27:40;8.45;;;3.65;;
32200;SDS011;18701;45.588;5.288;2022-07-25T08:30:07;9.88;;;4.38;;
32200;SDS011;18701;45.588;5.288;2022-07-25T08:32:33;7.35;;;3.47;;
32200;SDS011;18701;45.588;5.288;2022-07-25T08:35:09;9.77;;;4.07;;
32200;SDS011;18701;45.588;5.288;2022-07-25T08:37:35;6.72;;;3.85;;
32200;SDS011;18701;45.588;5.288;2022-07-25T08:40:00;11.20;;;4.72;;
32200;SDS011;18701;45.588;5.288;2022-07-25T08:42:26;10.15;;;4.28;;
32200;SDS011;18701;45.588;5.288;2022-07-25T08:44:57;7.50;;;4.53;;
32200;SDS011;18701;45.588;5.288;2022-07-25T08:47:24;14.20;;;3.50;;
32200;SDS011;18701;45.588;5.288;2022-07-25T08:49:50;7.78;;;2.97;;
32200;SDS011;18701;45.588;5.288;2022-07-25T08:52:16;4.32;;;3.72;;
32200;SDS011;18701;45.588;5.288;2022-07-25T08:54:44;6.57;;;3.53;;
32200;SDS011;18701;45.588;5.288;2022-07-25T08:57:11;5.90;;;3.38;;
32200;SDS011;18701;45.588;5.288;2022-07-25T08:59:37;10.25;;;5.32;;
32200;SDS011;18701;45.588;5.288;2022-07-25T09:02:03;7.75;;;3.90;;
32200;SDS011;18701;45.588;5.288;2022-07-25T09:04:34;7.55;;;5.65;;
32200;SDS011;18701;45.588;5.288;2022-07-25T09:07:00;8.13;;;4.13;;
32200;SDS011;18701;45.588;5.288;2022-07-25T09:09:32;10.55;;;3.15;;
32200;SDS011;18701;45.588;5.288;2022-07-25T09:11:59;10.68;;;4.28;;
32200;SDS011;18701;45.588;5.288;2022-07-25T09:14:26;4.90;;;3.60;;
32200;SDS011;18701;45.588;5.288;2022-07-25T09:16:54;5.35;;;3.20;;
32200;SDS011;18701;45.588;5.288;2022-07-25T09:19:21;10.68;;;4.00;;
32200;SDS011;18701;45.588;5.288;2022-07-25T09:24:26;10.90;;;3.50;;
32200;SDS011;18701;45.588;5.288;2022-07-25T09:26:54;7.72;;;4.10;;
32200;SDS011;18701;45.588;5.288;2022-07-25T09:29:23;9.02;;;3.83;;
32200;SDS011;18701;45.588;5.288;2022-07-25T09:31:51;9.70;;;3.47;;
32200;SDS011;18701;45.588;5.288;2022-07-25T09:37:02;6.05;;;3.15;;
32200;SDS011;18701;45.588;5.288;2022-07-25T09:42:01;6.25;;;3.60;;
32200;SDS011;18701;45.588;5.288;2022-07-25T09:44:38;5.30;;;3.33;;
32200;SDS011;18701;45.588;5.288;2022-07-25T09:47:13;4.97;;;3.88;;
32200;SDS011;18701;45.588;5.288;2022-07-25T09:49:43;6.93;;;3.13;;
32200;SDS011;18701;45.588;5.288;2022-07-25T09:52:11;4.38;;;3.13;;
32200;SDS011;18701;45.588;5.288;2022-07-25T09:54:39;5.35;;;3.15;;
32200;SDS011;18701;45.588;5.288;2022-07-25T09:57:05;4.95;;;3.40;;
32200;SDS011;18701;45.588;5.288;2022-07-25T09:59:36;6.35;;;3.92;;
32200;SDS011;18701;45.588;5.288;2022-07-25T10:07:19;7.32;;;3.33;;
32200;SDS011;18701;45.588;5.288;2022-07-25T10:09:47;3.90;;;3.05;;
32200;SDS011;18701;45.588;5.288;2022-07-25T10:12:19;6.55;;;2.72;;
32200;SDS011;18701;45.588;5.288;2022-07-25T10:17:35;5.75;;;3.40;;
32200;SDS011;18701;45.588;5.288;2022-07-25T10:20:03;5.60;;;3.47;;
32200;SDS011;18701;45.588;5.288;2022-07-25T10:25:09;6.63;;;2.97;;
32200;SDS011;18701;45.588;5.288;2022-07-25T10:27:42;5.03;;;2.92;;
32200;SDS011;18701;45.588;5.288;2022-07-25T10:30:23;7.20;;;3.47;;
32200;SDS011;18701;45.588;5.288;2022-07-25T10:33:00;5.22;;;3.28;;
32200;SDS011;18701;45.588;5.288;2022-07-25T10:35:28;9.60;;;3.78;;
32200;SDS011;18701;45.588;5.288;2022-07-25T10:37:54;7.60;;;3.53;;
32200;SDS011;18701;45.588;5.288;2022-07-25T10:41:04;11.65;;;3.45;;
32200;SDS011;18701;45.588;5.288;2022-07-25T10:43:13;6.35;;;3.13;;
32200;SDS011;18701;45.588;5.288;2022-07-25T10:45:47;8.20;;;3.65;;
32200;SDS011;18701;45.588;5.288;2022-07-25T10:48:22;5.43;;;3.43;;
32200;SDS011;18701;45.588;5.288;2022-07-25T10:50:56;5.07;;;3.30;;
32200;SDS011;18701;45.588;5.288;2022-07-25T10:53:38;4.72;;;3.67;;
32200;SDS011;18701;45.588;5.288;2022-07-25T11:01:27;3.97;;;3.58;;
32200;SDS011;18701;45.588;5.288;2022-07-25T11:04:00;4.43;;;3.17;;
32200;SDS011;18701;45.588;5.288;2022-07-25T11:06:38;6.88;;;3.50;;
32200;SDS011;18701;45.588;5.288;2022-07-25T11:11:48;6.10;;;3.78;;
32200;SDS011;18701;45.588;5.288;2022-07-25T11:14:29;9.50;;;4.10;;
32200;SDS011;18701;45.588;5.288;2022-07-25T11:16:57;11.93;;;4.03;;
32200;SDS011;18701;45.588;5.288;2022-07-25T11:19:37;7.05;;;4.13;;
32200;SDS011;18701;45.588;5.288;2022-07-25T11:22:02;11.68;;;3.83;;
32200;SDS011;18701;45.588;5.288;2022-07-25T11:24:38;8.27;;;3.78;;
32200;SDS011;18701;45.588;5.288;2022-07-25T11:27:06;5.38;;;3.55;;
32200;SDS011;18701;45.588;5.288;2022-07-25T11:29:34;7.05;;;3.90;;
32200;SDS011;18701;45.588;5.288;2022-07-25T11:32:06;8.70;;;3.63;;
32200;SDS011;18701;45.588;5.288;2022-07-25T11:34:34;10.30;;;3.70;;
32200;SDS011;18701;45.588;5.288;2022-07-25T11:37:03;9.50;;;5.03;;
32200;SDS011;18701;45.588;5.288;2022-07-25T11:39:31;8.93;;;4.85;;
32200;SDS011;18701;45.588;5.288;2022-07-25T11:41:59;6.15;;;3.50;;
32200;SDS011;18701;45.588;5.288;2022-07-25T11:44:39;5.13;;;3.80;;
32200;SDS011;18701;45.588;5.288;2022-07-25T11:47:07;11.10;;;4.20;;
32200;SDS011;18701;45.588;5.288;2022-07-25T11:49:47;6.78;;;3.83;;
32200;SDS011;18701;45.588;5.288;2022-07-25T11:57:27;4.18;;;3.53;;
32200;SDS011;18701;45.588;5.288;2022-07-25T11:59:57;7.78;;;4.28;;
32200;SDS011;18701;45.588;5.288;2022-07-25T12:02:28;4.65;;;3.58;;
32200;SDS011;18701;45.588;5.288;2022-07-25T12:04:56;5.40;;;4.43;;
32200;SDS011;18701;45.588;5.288;2022-07-25T12:07:35;6.47;;;3.47;;
32200;SDS011;18701;45.588;5.288;2022-07-25T12:10:20;4.95;;;3.47;;
32200;SDS011;18701;45.588;5.288;2022-07-25T12:12:56;8.98;;;4.00;;
32200;SDS011;18701;45.588;5.288;2022-07-25T12:15:26;6.50;;;4.03;;
32200;SDS011;18701;45.588;5.288;2022-07-25T12:17:55;5.47;;;3.50;;
32200;SDS011;18701;45.588;5.288;2022-07-25T12:20:25;9.25;;;3.35;;
32200;SDS011;18701;45.588;5.288;2022-07-25T12:22:57;17.70;;;3.80;;
32200;SDS011;18701;45.588;5.288;2022-07-25T12:25:25;17.75;;;3.85;;
32200;SDS011;18701;45.588;5.288;2022-07-25T12:27:51;14.65;;;4.25;;
32200;SDS011;18701;45.588;5.288;2022-07-25T12:30:17;6.40;;;3.58;;
32200;SDS011;18701;45.588;5.288;2022-07-25T12:32:43;9.80;;;3.53;;
32200;SDS011;18701;45.588;5.288;2022-07-25T12:35:09;15.57;;;4.40;;
32200;SDS011;18701;45.588;5.288;2022-07-25T12:37:37;5.82;;;3.63;;
32200;SDS011;18701;45.588;5.288;2022-07-25T12:40:03;16.48;;;4.40;;
32200;SDS011;18701;45.588;5.288;2022-07-25T12:42:29;10.25;;;4.10;;
32200;SDS011;18701;45.588;5.288;2022-07-25T12:44:55;10.18;;;3.97;;
32200;SDS011;18701;45.588;5.288;2022-07-25T12:47:21;7.57;;;3.90;;
32200;SDS011;18701;45.588;5.288;2022-07-25T12:49:47;4.65;;;3.67;;
32200;SDS011;18701;45.588;5.288;2022-07-25T12:52:13;6.45;;;4.07;;
32200;SDS011;18701;45.588;5.288;2022-07-25T12:54:39;23.83;;;5.68;;
32200;SDS011;18701;45.588;5.288;2022-07-25T12:57:04;8.77;;;4.40;;
32200;SDS011;18701;45.588;5.288;2022-07-25T12:59:30;7.80;;;3.83;;
32200;SDS011;18701;45.588;5.288;2022-07-25T13:01:56;5.03;;;3.45;;
32200;SDS011;18701;45.588;5.288;2022-07-25T13:04:22;17.13;;;4.28;;
32200;SDS011;18701;45.588;5.288;2022-07-25T13:06:50;7.75;;;3.35;;
32200;SDS011;18701;45.588;5.288;2022-07-25T13:09:22;9.45;;;3.08;;
32200;SDS011;18701;45.588;5.288;2022-07-25T13:11:52;16.45;;;3.15;;
32200;SDS011;18701;45.588;5.288;2022-07-25T13:14:18;13.77;;;2.60;;
32200;SDS011;18701;45.588;5.288;2022-07-25T13:16:47;5.20;;;2.67;;
32200;SDS011;18701;45.588;5.288;2022-07-25T13:19:13;4.20;;;2.92;;
32200;SDS011;18701;45.588;5.288;2022-07-25T13:21:40;6.15;;;2.60;;
32200;SDS011;18701;45.588;5.288;2022-07-25T13:24:06;9.45;;;2.72;;
32200;SDS011;18701;45.588;5.288;2022-07-25T13:26:33;8.43;;;2.55;;
32200;SDS011;18701;45.588;5.288;2022-07-25T13:29:00;5.82;;;2.28;;
32200;SDS011;18701;45.588;5.288;2022-07-25T13:31:25;6.13;;;3.10;;
32200;SDS011;18701;45.588;5.288;2022-07-25T13:33:51;13.15;;;3.42;;
32200;SDS011;18701;45.588;5.288;2022-07-25T13:36:17;10.70;;;2.47;;
32200;SDS011;18701;45.588;5.288;2022-07-25T13:38:43;6.10;;;2.58;;
32200;SDS011;18701;45.588;5.288;2022-07-25T13:41:10;6.88;;;2.58;;
32200;SDS011;18701;45.588;5.288;2022-07-25T13:43:39;5.60;;;2.28;;
32200;SDS011;18701;45.588;5.288;2022-07-25T13:46:07;5.25;;;2.00;;
32200;SDS011;18701;45.588;5.288;2022-07-25T13:48:33;8.20;;;2.88;;
32200;SDS011;18701;45.588;5.288;2022-07-25T13:50:59;5.78;;;2.90;;
32200;SDS011;18701;45.588;5.288;2022-07-25T13:53:25;3.80;;;1.98;;
32200;SDS011;18701;45.588;5.288;2022-07-25T13:55:51;2.97;;;2.60;;
32200;SDS011;18701;45.588;5.288;2022-07-25T13:58:16;5.57;;;2.60;;
32200;SDS011;18701;45.588;5.288;2022-07-25T14:00:42;8.02;;;2.70;;
32200;SDS011;18701;45.588;5.288;2022-07-25T14:03:08;4.47;;;2.53;;
32200;SDS011;18701;45.588;5.288;2022-07-25T14:05:34;7.30;;;2.50;;
32200;SDS011;18701;45.588;5.288;2022-07-25T14:08:05;4.90;;;3.13;;
32200;SDS011;18701;45.588;5.288;2022-07-25T14:10:34;5.32;;;2.33;;
32200;SDS011;18701;45.588;5.288;2022-07-25T14:13:00;5.80;;;2.85;;
32200;SDS011;18701;45.588;5.288;2022-07-25T14:15:25;6.65;;;2.92;;
32200;SDS011;18701;45.588;5.288;2022-07-25T14:17:51;4.88;;;2.13;;
32200;SDS011;18701;45.588;5.288;2022-07-25T14:20:17;6.20;;;2.58;;
32200;SDS011;18701;45.588;5.288;2022-07-25T14:22:43;4.78;;;2.40;;
32200;SDS011;18701;45.588;5.288;2022-07-25T14:25:09;4.85;;;2.38;;
32200;SDS011;18701;45.588;5.288;2022-07-25T14:27:35;2.80;;;2.55;;
32200;SDS011;18701;45.588;5.288;2022-07-25T14:30:02;4.22;;;2.83;;
32200;SDS011;18701;45.588;5.288;2022-07-25T14:32:28;4.30;;;2.40;;
32200;SDS011;18701;45.588;5.288;2022-07-25T14:34:54;7.55;;;2.70;;
32200;SDS011;18701;45.588;5.288;2022-07-25T14:37:20;5.15;;;3.00;;
32200;SDS011;18701;45.588;5.288;2022-07-25T14:39:47;10.10;;;2.47;;
32200;SDS011;18701;45.588;5.288;2022-07-25T14:42:13;5.13;;;2.30;;
32200;SDS011;18701;45.588;5.288;2022-07-25T14:44:39;4.45;;;2.47;;
32200;SDS011;18701;45.588;5.288;2022-07-25T14:47:05;8.15;;;2.88;;
32200;SDS011;18701;45.588;5.288;2022-07-25T14:49:31;7.00;;;2.58;;
32200;SDS011;18701;45.588;5.288;2022-07-25T14:51:57;5.80;;;2.75;;
32200;SDS011;18701;45.588;5.288;2022-07-25T14:54:23;6.00;;;2.47;;
32200;SDS011;18701;45.588;5.288;2022-07-25T14:56:52;5.75;;;2.47;;
32200;SDS011;18701;45.588;5.288;2022-07-25T14:59:19;5.50;;;2.60;;
32200;SDS011;18701;45.588;5.288;2022-07-25T15:01:45;3.58;;;2.42;;
32200;SDS011;18701;45.588;5.288;2022-07-25T15:04:10;3.20;;;2.65;;
32200;SDS011;18701;45.588;5.288;2022-07-25T15:06:36;7.63;;;2.78;;
32200;SDS011;18701;45.588;5.288;2022-07-25T15:09:04;7.05;;;2.60;;
32200;SDS011;18701;45.588;5.288;2022-07-25T15:11:30;3.97;;;2.33;;
32200;SDS011;18701;45.588;5.288;2022-07-25T15:13:56;6.55;;;2.85;;
32200;SDS011;18701;45.588;5.288;2022-07-25T15:16:21;4.47;;;2.65;;